CheckWX is a tool to help pilots better visualize weather data.  It is not intended as a substitute for an official pre-flight weather briefing.

12:19:53 UTC

HKWJ METAR
Wajir Airport
Wajir, Kenya
Current

3 hours ago

HKWJ 220900Z 11009KT 9999 BKN033 34/19 Q1010
Observed
Feb-22 @ 09:00 UTC
Wind
  • 110° at 9 KTS
Visibility
10,000+ meters
Flight Rules
VFR
Cloud Levels
  • Broken at 3,300' AGL
Temperature
34°C / 93°F
Dewpoint
19°C / 66°F
Humidity
41%
Altimeter
29.82" Hg
Pressure
1009.92 hPa
Previous

6 hours ago

HKWJ 220600Z 11011KT 9999 BKN026 29/21 Q1012
Observed
Feb-22 @ 06:00 UTC
Wind
  • 110° at 11 KTS
Visibility
10,000+ meters
Flight Rules
MVFR
Cloud Levels
  • Broken at 2,600' AGL
Temperature
29°C / 84°F
Dewpoint
21°C / 70°F
Humidity
62%
Altimeter
29.88" Hg
Pressure
1011.92 hPa
Previous

7 hours ago

HKWJ 220500Z 10013KT 9999 BKN024 27/22 Q1012
Observed
Feb-22 @ 05:00 UTC
Wind
  • 100° at 13 KTS
Visibility
10,000+ meters
Flight Rules
MVFR
Cloud Levels
  • Broken at 2,400' AGL
Temperature
27°C / 81°F
Dewpoint
22°C / 72°F
Humidity
74%
Altimeter
29.88" Hg
Pressure
1011.92 hPa